createdAt,value
2019-05-22T00:01:01.533Z,19.40
2019-05-22T00:03:33.942Z,14.28
2019-05-22T00:06:05.922Z,16.85
2019-05-22T00:08:37.760Z,14.78
2019-05-22T00:11:10.413Z,12.30
2019-05-22T00:13:41.691Z,13.93
2019-05-22T00:16:13.950Z,15.98
2019-05-22T00:18:45.886Z,18.70
2019-05-22T00:21:17.832Z,22.87
2019-05-22T00:23:49.408Z,21.02
2019-05-22T00:26:23.119Z,20.88
2019-05-22T00:28:56.109Z,20.65
2019-05-22T00:31:28.077Z,17.57
2019-05-22T00:34:00.961Z,12.78
2019-05-22T00:36:34.154Z,12.68
2019-05-22T00:39:08.260Z,9.75
2019-05-22T00:41:41.191Z,9.40
2019-05-22T00:44:15.265Z,11.70
2019-05-22T00:46:46.699Z,7.53
2019-05-22T00:49:19.509Z,9.50
2019-05-22T00:51:53.613Z,8.93
2019-05-22T00:54:26.904Z,7.05
2019-05-22T00:56:59.951Z,6.25
2019-05-22T00:59:32.372Z,9.73
2019-05-22T01:02:04.948Z,4.62
2019-05-22T01:04:37.967Z,7.05
2019-05-22T01:07:11.217Z,7.08
2019-05-22T01:09:44.221Z,7.80
2019-05-22T01:12:18.890Z,6.08
2019-05-22T01:14:51.948Z,6.08
2019-05-22T01:17:25.548Z,5.95
2019-05-22T01:19:58.938Z,10.72
2019-05-22T01:22:31.920Z,6.40
2019-05-22T01:25:05.515Z,11.25
2019-05-22T01:27:38.415Z,10.30
2019-05-22T01:30:11.507Z,9.68
2019-05-22T01:32:45.406Z,7.72
2019-05-22T01:35:17.891Z,9.45
2019-05-22T01:37:51.230Z,8.50
2019-05-22T01:40:25.735Z,10.68
2019-05-22T01:42:59.018Z,10.55
2019-05-22T01:45:31.323Z,12.18
2019-05-22T01:50:38.980Z,10.98
2019-05-22T01:53:12.004Z,15.43
2019-05-22T01:55:45.432Z,10.45
2019-05-22T01:58:17.353Z,20.02
2019-05-22T02:00:49.739Z,17.27
2019-05-22T02:03:22.359Z,12.90
2019-05-22T02:05:54.319Z,12.23
2019-05-22T02:08:28.066Z,10.45
2019-05-22T02:11:19.843Z,10.20
2019-05-22T02:13:53.869Z,13.80
2019-05-22T02:16:25.464Z,9.15
2019-05-22T02:18:57.957Z,11.12
2019-05-22T02:21:29.919Z,8.03
2019-05-22T02:24:02.008Z,6.80
2019-05-22T02:26:33.769Z,8.65
2019-05-22T02:29:06.732Z,12.33
2019-05-22T02:31:38.373Z,8.85
2019-05-22T02:34:10.828Z,9.40
2019-05-22T02:36:44.273Z,15.80
2019-05-22T02:39:19.761Z,8.43
2019-05-22T02:41:53.585Z,11.57
2019-05-22T02:44:26.531Z,7.33
2019-05-22T02:47:18.280Z,12.07
2019-05-22T02:49:37.020Z,8.70
2019-05-22T02:52:10.609Z,8.15
2019-05-22T02:54:43.013Z,8.00
2019-05-22T02:57:14.878Z,9.63
2019-05-22T02:59:47.161Z,9.28
2019-05-22T03:02:19.678Z,7.15
2019-05-22T03:04:53.196Z,7.22
2019-05-22T03:07:27.185Z,7.03
2019-05-22T03:09:59.554Z,7.30
2019-05-22T03:12:33.411Z,7.30
2019-05-22T03:15:06.991Z,7.47
2019-05-22T03:17:41.220Z,5.92
2019-05-22T03:20:14.910Z,7.87
2019-05-22T03:22:49.476Z,9.48
2019-05-22T03:25:21.227Z,8.55
2019-05-22T03:27:55.644Z,6.65
2019-05-22T03:30:29.505Z,6.40
2019-05-22T03:33:03.130Z,8.68
2019-05-22T03:35:36.733Z,10.00
2019-05-22T03:38:09.650Z,9.95
2019-05-22T03:40:42.166Z,7.08
2019-05-22T03:43:16.702Z,8.58
2019-05-22T03:45:49.168Z,7.45
2019-05-22T03:48:22.993Z,11.93
2019-05-22T03:50:56.837Z,7.72
2019-05-22T03:53:28.862Z,14.20
2019-05-22T03:56:00.907Z,15.63
2019-05-22T03:58:51.428Z,11.75
2019-05-22T04:01:23.496Z,7.62
2019-05-22T04:06:27.326Z,6.97
2019-05-22T04:09:01.356Z,5.62
2019-05-22T04:11:35.252Z,15.10
2019-05-22T04:14:06.740Z,5.05
2019-05-22T04:16:38.757Z,6.95
2019-05-22T04:21:40.815Z,5.85
2019-05-22T04:24:12.321Z,5.55
2019-05-22T04:26:45.178Z,4.50
2019-05-22T04:29:17.492Z,6.97
2019-05-22T04:31:52.637Z,12.15
2019-05-22T04:34:24.674Z,6.72
2019-05-22T04:39:29.127Z,6.87
2019-05-22T04:42:02.504Z,4.40
2019-05-22T04:44:34.474Z,6.55
2019-05-22T04:49:38.129Z,5.28
2019-05-22T04:52:11.100Z,6.80
2019-05-22T04:54:43.349Z,7.00
2019-05-22T04:57:15.153Z,7.58
2019-05-22T04:59:46.473Z,6.97
2019-05-22T05:02:18.624Z,5.78
2019-05-22T05:04:50.649Z,6.62
2019-05-22T05:09:52.891Z,9.10
2019-05-22T05:12:24.508Z,7.65
2019-05-22T05:14:56.179Z,6.85
2019-05-22T05:17:28.787Z,8.18
2019-05-22T05:20:01.041Z,8.50
2019-05-22T05:22:35.155Z,6.72
2019-05-22T05:25:07.830Z,7.00
2019-05-22T05:27:40.021Z,6.55
2019-05-22T05:30:13.304Z,7.50
2019-05-22T05:32:45.983Z,8.60
2019-05-22T05:35:20.007Z,6.80
2019-05-22T05:37:52.558Z,6.92
2019-05-22T05:40:26.714Z,10.18
2019-05-22T05:42:58.181Z,9.00
2019-05-22T05:45:32.080Z,5.28
2019-05-22T05:48:05.942Z,5.97
2019-05-22T05:50:40.354Z,6.22
2019-05-22T05:53:13.897Z,7.25
2019-05-22T05:55:49.563Z,9.58
2019-05-22T05:58:23.439Z,6.72
2019-05-22T06:00:58.558Z,7.97
2019-05-22T06:03:51.516Z,9.70
2019-05-22T06:06:26.436Z,5.85
2019-05-22T06:09:00.601Z,6.47
2019-05-22T06:11:35.271Z,5.80
2019-05-22T06:14:08.008Z,5.65
2019-05-22T06:16:42.788Z,7.90
2019-05-22T06:19:15.256Z,4.87
2019-05-22T06:21:46.243Z,7.30
2019-05-22T06:24:20.672Z,8.85
2019-05-22T06:26:55.191Z,5.45
2019-05-22T06:29:30.390Z,6.62
2019-05-22T06:32:05.279Z,5.72
2019-05-22T06:34:38.665Z,7.50
2019-05-22T06:37:13.701Z,7.05
2019-05-22T06:39:46.364Z,5.80
2019-05-22T06:42:18.367Z,8.35
2019-05-22T06:47:21.679Z,5.47
2019-05-22T06:49:54.534Z,5.22
2019-05-22T06:52:26.628Z,5.37
2019-05-22T06:54:58.711Z,6.87
2019-05-22T06:57:31.060Z,5.67
2019-05-22T07:00:15.001Z,7.20
2019-05-22T07:02:39.188Z,6.80
2019-05-22T07:05:11.924Z,6.47
2019-05-22T07:07:44.334Z,6.70
2019-05-22T07:10:16.659Z,8.80
2019-05-22T07:12:50.727Z,8.05
2019-05-22T07:15:23.228Z,8.88
2019-05-22T07:17:54.833Z,9.13
2019-05-22T07:20:28.528Z,7.05
2019-05-22T07:23:01.723Z,6.28
2019-05-22T07:25:35.786Z,9.30
2019-05-22T07:28:09.506Z,7.58
2019-05-22T07:30:41.131Z,7.45
2019-05-22T07:33:14.276Z,8.40
2019-05-22T07:36:07.695Z,7.62
2019-05-22T07:38:21.616Z,5.92
2019-05-22T07:40:54.675Z,8.03
2019-05-22T07:43:27.709Z,9.03
2019-05-22T07:46:01.084Z,8.28
2019-05-22T07:48:34.336Z,10.03
2019-05-22T07:51:07.209Z,7.03
2019-05-22T07:53:39.288Z,12.58
2019-05-22T07:56:13.505Z,8.20
2019-05-22T07:58:46.929Z,11.60
2019-05-22T08:01:19.464Z,7.20
2019-05-22T08:03:51.531Z,6.78
2019-05-22T08:06:23.994Z,7.33
2019-05-22T08:08:56.568Z,9.20
2019-05-22T08:11:28.636Z,7.30
2019-05-22T08:14:00.744Z,5.65
2019-05-22T08:16:33.495Z,6.83
2019-05-22T08:19:05.483Z,6.17
2019-05-22T08:21:37.858Z,8.58
2019-05-22T08:24:10.945Z,6.33
2019-05-22T08:26:53.823Z,11.22
2019-05-22T08:29:17.556Z,7.10
2019-05-22T08:31:50.198Z,6.42
2019-05-22T08:34:22.472Z,6.00
2019-05-22T08:36:54.489Z,8.55
2019-05-22T08:39:28.034Z,6.58
2019-05-22T08:42:01.576Z,6.25
2019-05-22T08:44:34.527Z,9.88
2019-05-22T08:47:06.807Z,6.28
2019-05-22T08:49:40.105Z,11.95
2019-05-22T08:52:23.113Z,5.37
2019-05-22T08:54:49.438Z,8.68
2019-05-22T08:57:22.751Z,8.20
2019-05-22T08:59:54.509Z,5.30
2019-05-22T09:02:26.568Z,8.33
2019-05-22T09:04:58.965Z,6.12
2019-05-22T09:07:30.724Z,7.50
2019-05-22T09:10:02.804Z,6.42
2019-05-22T09:12:34.078Z,6.80
2019-05-22T09:15:06.890Z,6.70
2019-05-22T09:17:39.684Z,6.83
2019-05-22T09:20:13.487Z,5.90
2019-05-22T09:22:45.257Z,7.55
2019-05-22T09:25:17.751Z,7.90
2019-05-22T09:27:49.558Z,6.72
2019-05-22T09:32:53.679Z,7.00
2019-05-22T09:35:25.941Z,6.60
2019-05-22T09:37:58.573Z,5.12
2019-05-22T09:40:31.491Z,5.03
2019-05-22T09:43:03.415Z,7.47
2019-05-22T09:48:06.947Z,9.93
2019-05-22T09:50:38.927Z,9.88
2019-05-22T09:53:11.749Z,7.53
2019-05-22T09:55:47.038Z,7.97
2019-05-22T09:58:16.287Z,7.17
2019-05-22T10:00:48.618Z,5.95
2019-05-22T10:03:20.536Z,10.25
2019-05-22T10:05:53.230Z,9.90
2019-05-22T10:08:25.526Z,8.28
2019-05-22T10:10:58.005Z,10.05
2019-05-22T10:13:30.194Z,9.10
2019-05-22T10:16:01.935Z,13.58
2019-05-22T10:21:05.400Z,23.47
2019-05-22T10:23:37.160Z,10.25
2019-05-22T10:26:09.078Z,11.85
2019-05-22T10:28:41.547Z,8.53
2019-05-22T10:41:49.456Z,12.37
2019-05-22T10:44:21.606Z,10.40
2019-05-22T10:46:53.247Z,10.05
2019-05-22T10:49:25.207Z,7.85
2019-05-22T10:51:56.776Z,8.33
2019-05-22T10:54:27.834Z,8.70
2019-05-22T10:56:59.356Z,12.10
2019-05-22T10:59:30.319Z,10.23
2019-05-22T11:02:02.356Z,9.85
2019-05-22T11:04:34.346Z,8.33
2019-05-22T11:09:36.762Z,10.05
2019-05-22T11:12:08.946Z,11.28
2019-05-22T11:14:41.706Z,8.15
2019-05-22T11:17:13.743Z,7.50
2019-05-22T11:19:46.529Z,8.40
2019-05-22T11:22:18.637Z,8.65
2019-05-22T11:24:50.260Z,9.55
2019-05-22T11:27:22.732Z,13.70
2019-05-22T11:29:54.713Z,10.32
2019-05-22T11:34:56.110Z,13.03
2019-05-22T11:37:28.146Z,21.02
2019-05-22T11:42:30.585Z,23.18
2019-05-22T11:45:02.808Z,21.23
2019-05-22T11:47:34.333Z,31.97
2019-05-22T11:50:07.330Z,27.00
2019-05-22T11:52:39.308Z,21.57
2019-05-22T11:57:43.855Z,23.42
2019-05-22T12:00:17.568Z,13.15
2019-05-22T12:02:49.220Z,13.13
2019-05-22T12:05:22.186Z,12.53
2019-05-22T12:07:54.467Z,14.93
2019-05-22T12:10:27.770Z,14.63
2019-05-22T12:13:00.068Z,15.38
2019-05-22T12:15:32.453Z,14.90
2019-05-22T12:18:04.549Z,15.48
2019-05-22T12:20:36.770Z,17.37
2019-05-22T12:25:38.912Z,20.27
2019-05-22T12:28:11.010Z,15.58
2019-05-22T12:30:43.739Z,29.92
2019-05-22T12:33:15.492Z,18.60
2019-05-22T12:35:47.597Z,14.43
2019-05-22T12:40:50.114Z,20.30
2019-05-22T12:43:21.816Z,16.32
2019-05-22T12:45:54.346Z,19.55
2019-05-22T12:48:26.098Z,17.52
2019-05-22T12:50:58.053Z,28.57
2019-05-22T12:53:29.821Z,22.52
2019-05-22T12:56:02.613Z,23.18
2019-05-22T12:58:35.179Z,10.98
2019-05-22T13:01:07.439Z,16.57
2019-05-22T13:03:40.949Z,12.60
2019-05-22T13:06:13.384Z,13.45
2019-05-22T13:08:45.137Z,27.98
2019-05-22T13:11:16.730Z,9.60
2019-05-22T13:13:49.130Z,9.65
2019-05-22T13:16:21.029Z,15.35
2019-05-22T13:21:26.947Z,24.37
2019-05-22T13:23:59.021Z,17.35
2019-05-22T13:29:01.839Z,16.55
2019-05-22T13:31:33.863Z,16.93
2019-05-22T13:36:38.020Z,17.50
2019-05-22T13:39:11.171Z,13.60
2019-05-22T13:41:42.723Z,17.07
2019-05-22T13:44:14.944Z,20.65
2019-05-22T13:46:47.217Z,22.37
2019-05-22T13:49:19.271Z,14.23
2019-05-22T13:54:22.819Z,10.85
2019-05-22T13:56:54.858Z,11.12
2019-05-22T14:01:57.466Z,14.80
2019-05-22T14:07:00.067Z,13.45
2019-05-22T14:12:03.374Z,13.03
2019-05-22T14:14:35.666Z,26.12
2019-05-22T14:17:07.270Z,11.22
2019-05-22T14:19:38.749Z,13.15
2019-05-22T14:22:10.092Z,20.90
2019-05-22T14:24:42.166Z,23.73
2019-05-22T14:29:44.239Z,26.52
2019-05-22T14:32:16.867Z,27.27
2019-05-22T14:34:48.797Z,21.68
2019-05-22T14:37:20.864Z,19.90
2019-05-22T14:42:23.496Z,23.27
2019-05-22T14:47:25.189Z,14.70
2019-05-22T14:49:56.900Z,19.75
2019-05-22T14:52:28.961Z,24.32
2019-05-22T14:57:31.177Z,22.62
2019-05-22T15:00:02.883Z,30.05
2019-05-22T15:02:34.461Z,20.32
2019-05-22T15:05:07.137Z,18.55
2019-05-22T15:07:39.311Z,15.10
2019-05-22T15:12:42.583Z,22.60
2019-05-22T15:15:14.806Z,17.70
2019-05-22T15:17:46.658Z,15.05
2019-05-22T15:20:21.287Z,21.75
2019-05-22T15:22:55.999Z,21.00
2019-05-22T15:25:26.754Z,22.70
2019-05-22T15:30:29.346Z,15.80
2019-05-22T15:33:00.976Z,25.08
2019-05-22T15:35:33.284Z,33.50
2019-05-22T15:38:06.652Z,21.75
2019-05-22T15:40:39.254Z,28.02
2019-05-22T15:43:11.626Z,19.80
2019-05-22T15:45:44.015Z,26.40
2019-05-22T15:48:18.107Z,22.27
2019-05-22T15:50:51.558Z,14.58
2019-05-22T15:53:25.413Z,17.32
2019-05-22T15:55:58.611Z,20.23
2019-05-22T15:58:31.599Z,21.42
2019-05-22T16:01:03.697Z,14.18
2019-05-22T16:06:08.263Z,25.23
2019-05-22T16:08:40.473Z,17.48
2019-05-22T16:13:43.691Z,14.35
2019-05-22T16:16:18.309Z,19.25
2019-05-22T16:18:51.517Z,20.10
2019-05-22T16:21:23.275Z,17.50
2019-05-22T16:23:55.034Z,14.15
2019-05-22T16:26:27.205Z,27.50
2019-05-22T16:31:29.722Z,16.77
2019-05-22T16:34:02.074Z,25.15
2019-05-22T16:36:34.150Z,16.67
2019-05-22T16:39:07.748Z,18.15
2019-05-22T16:41:40.409Z,19.40
2019-05-22T16:44:12.806Z,22.98
2019-05-22T16:46:45.262Z,27.37
2019-05-22T16:49:17.024Z,17.05
2019-05-22T16:51:49.873Z,16.75
2019-05-22T16:54:22.285Z,17.12
2019-05-22T16:56:55.078Z,18.92
2019-05-22T16:59:26.591Z,19.25
2019-05-22T17:02:00.291Z,20.37
2019-05-22T17:04:31.168Z,27.67
2019-05-22T17:07:03.231Z,21.50
2019-05-22T17:09:35.098Z,22.25
2019-05-22T17:12:08.384Z,23.02
2019-05-22T17:14:39.895Z,22.90
2019-05-22T17:17:14.166Z,21.23
2019-05-22T17:19:46.406Z,20.37
2019-05-22T17:24:48.949Z,23.12
2019-05-22T17:29:52.811Z,22.82
2019-05-22T17:32:25.438Z,23.45
2019-05-22T17:34:58.733Z,21.93
2019-05-22T17:37:31.861Z,22.85
2019-05-22T17:40:04.359Z,21.15
2019-05-22T17:42:36.098Z,17.42
2019-05-22T17:45:10.779Z,18.45
2019-05-22T17:47:43.765Z,20.48
2019-05-22T17:50:25.897Z,21.33
2019-05-22T17:52:51.319Z,25.02
2019-05-22T17:55:24.478Z,16.95
2019-05-22T17:57:55.818Z,23.40
2019-05-22T18:00:29.015Z,28.87
2019-05-22T18:03:01.602Z,16.90
2019-05-22T18:05:34.991Z,19.67
2019-05-22T18:08:07.020Z,22.60
2019-05-22T18:10:40.924Z,23.32
2019-05-22T18:13:14.011Z,18.27
2019-05-22T18:15:46.037Z,19.23
2019-05-22T18:18:18.599Z,24.30
2019-05-22T18:20:50.768Z,19.52
2019-05-22T18:25:52.647Z,20.75
2019-05-22T18:28:24.711Z,30.37
2019-05-22T18:33:26.533Z,22.73
2019-05-22T18:35:58.067Z,25.12
2019-05-22T18:38:29.920Z,22.25
2019-05-22T18:41:01.084Z,26.00
2019-05-22T18:43:32.112Z,26.60
2019-05-22T18:46:03.171Z,20.12
2019-05-22T18:48:34.201Z,49.25
2019-05-22T18:51:07.139Z,29.72
2019-05-22T18:53:37.979Z,19.05
2019-05-22T18:56:10.905Z,25.62
2019-05-22T18:58:42.601Z,24.02
2019-05-22T19:01:16.351Z,21.68
2019-05-22T19:03:46.884Z,22.30
2019-05-22T19:06:29.642Z,21.95
2019-05-22T19:08:52.562Z,22.52
2019-05-22T19:11:24.263Z,23.60
2019-05-22T19:13:55.477Z,18.70
2019-05-22T19:16:27.252Z,23.92
2019-05-22T19:18:58.977Z,23.77
2019-05-22T19:21:30.843Z,22.25
2019-05-22T19:24:02.563Z,22.62
2019-05-22T19:26:34.074Z,27.22
2019-05-22T19:29:05.424Z,21.25
2019-05-22T19:31:36.585Z,22.60
2019-05-22T19:34:08.615Z,19.27
2019-05-22T19:36:40.077Z,18.80
2019-05-22T19:39:11.282Z,23.92
2019-05-22T19:41:42.488Z,22.63
2019-05-22T19:44:14.349Z,19.20
2019-05-22T19:46:45.407Z,20.25
2019-05-22T19:49:17.384Z,22.62
2019-05-22T19:51:49.715Z,22.27
2019-05-22T19:54:21.468Z,18.62
2019-05-22T19:56:53.091Z,23.70
2019-05-22T19:59:25.406Z,31.27
2019-05-22T20:01:56.512Z,21.23
2019-05-22T20:04:28.400Z,20.90
2019-05-22T20:07:00.329Z,22.60
2019-05-22T20:09:32.379Z,27.42
2019-05-22T20:12:04.361Z,32.70
2019-05-22T20:14:35.529Z,21.17
2019-05-22T20:17:06.980Z,38.87
2019-05-22T20:19:38.317Z,27.27
2019-05-22T20:22:11.440Z,22.05
2019-05-22T20:24:42.584Z,20.70
2019-05-22T20:27:13.848Z,29.00
2019-05-22T20:29:45.072Z,36.20
2019-05-22T20:32:17.864Z,27.70
2019-05-22T20:34:50.232Z,24.25
2019-05-22T20:37:22.584Z,28.67
2019-05-22T20:39:54.306Z,23.20
2019-05-22T20:42:26.826Z,17.95
2019-05-22T20:44:59.108Z,24.05
2019-05-22T20:47:30.442Z,21.12
2019-05-22T20:50:02.321Z,23.30
2019-05-22T20:52:34.183Z,29.72
2019-05-22T20:55:08.204Z,23.83
2019-05-22T20:57:40.460Z,24.55
2019-05-22T21:00:13.959Z,26.97
2019-05-22T21:02:47.255Z,31.27
2019-05-22T21:05:21.371Z,28.65
2019-05-22T21:07:54.569Z,29.05
2019-05-22T21:10:26.225Z,23.12
2019-05-22T21:12:58.984Z,32.73
2019-05-22T21:15:31.179Z,22.02
2019-05-22T21:20:34.796Z,18.10
2019-05-22T21:23:06.254Z,18.10
2019-05-22T21:25:38.003Z,17.73
2019-05-22T21:28:10.991Z,25.25
2019-05-22T21:30:43.062Z,22.80
2019-05-22T21:33:16.360Z,24.23
2019-05-22T21:35:48.318Z,27.90
2019-05-22T21:38:21.073Z,20.88
2019-05-22T21:40:53.167Z,25.57
2019-05-22T21:43:25.846Z,27.45
2019-05-22T21:45:57.715Z,26.12
2019-05-22T21:48:29.985Z,24.98
2019-05-22T21:51:03.260Z,28.17
2019-05-22T21:53:35.030Z,40.30
2019-05-22T21:56:07.723Z,18.82
2019-05-22T21:58:40.708Z,33.67
2019-05-22T22:01:14.824Z,26.40
2019-05-22T22:03:48.625Z,27.55
2019-05-22T22:06:21.610Z,22.60
2019-05-22T22:08:53.698Z,19.25
2019-05-22T22:11:27.499Z,22.87
2019-05-22T22:13:59.770Z,26.55
2019-05-22T22:16:31.161Z,35.03
2019-05-22T22:19:02.436Z,47.23
2019-05-22T22:21:33.974Z,37.57
2019-05-22T22:24:05.228Z,36.83
2019-05-22T22:26:36.615Z,45.53
2019-05-22T22:29:09.088Z,43.10
2019-05-22T22:31:42.493Z,32.75
2019-05-22T22:34:16.201Z,32.75
2019-05-22T22:36:48.720Z,28.27
2019-05-22T22:39:21.269Z,35.43
2019-05-22T22:41:53.818Z,45.30
2019-05-22T22:44:25.380Z,31.68
2019-05-22T22:46:58.046Z,31.33
2019-05-22T22:49:30.740Z,31.07
2019-05-22T22:52:02.490Z,29.07
2019-05-22T22:54:33.707Z,27.93
2019-05-22T22:57:06.746Z,30.73
2019-05-22T22:59:38.830Z,26.97
2019-05-22T23:02:13.429Z,25.45
2019-05-22T23:04:46.626Z,35.75
2019-05-22T23:07:20.092Z,30.62
2019-05-22T23:09:51.874Z,27.27
2019-05-22T23:12:24.249Z,34.78
2019-05-22T23:14:58.358Z,34.92
2019-05-22T23:17:31.495Z,27.90
2019-05-22T23:20:02.831Z,31.57
2019-05-22T23:22:33.187Z,25.80
2019-05-22T23:25:05.612Z,28.25
2019-05-22T23:27:38.501Z,29.00
2019-05-22T23:30:12.772Z,28.60
2019-05-22T23:32:45.705Z,18.77
2019-05-22T23:35:18.594Z,20.10
2019-05-22T23:37:50.147Z,24.90
2019-05-22T23:40:23.641Z,21.82
2019-05-22T23:42:56.071Z,19.87
2019-05-22T23:45:27.529Z,25.72
2019-05-22T23:48:01.483Z,20.15
2019-05-22T23:50:34.988Z,17.57
2019-05-22T23:53:06.735Z,20.12
2019-05-22T23:55:39.827Z,23.42
2019-05-22T23:58:13.119Z,17.37
